createdAt,value
2018-07-07T00:04:47.984Z,6.1
2018-07-07T00:10:42.990Z,5.42
2018-07-07T00:16:37.996Z,5.37
2018-07-07T00:22:33.015Z,5.32
2018-07-07T00:28:28.053Z,5.26
2018-07-07T00:34:22.997Z,4.87
2018-07-07T00:40:18.041Z,5.16
2018-07-07T00:46:13.021Z,4.66
2018-07-07T00:52:08.010Z,5.41
2018-07-07T00:58:03.134Z,4.97
2018-07-07T01:03:58.034Z,6.47
2018-07-07T01:09:53.023Z,5.2
2018-07-07T01:15:48.052Z,5.03
2018-07-07T01:21:43.065Z,4.7
2018-07-07T01:27:38.118Z,5.29
2018-07-07T01:33:33.059Z,4.97
2018-07-07T01:39:28.263Z,5.1
2018-07-07T01:45:23.103Z,5.58
2018-07-07T01:51:18.047Z,5.13
2018-07-07T01:57:13.078Z,5.23
2018-07-07T02:03:08.159Z,4.95
2018-07-07T02:09:03.142Z,5.23
2018-07-07T02:14:58.099Z,4.58
2018-07-07T02:20:53.074Z,5.4
2018-07-07T02:26:48.098Z,5.48
2018-07-07T02:32:43.073Z,5.46
2018-07-07T02:38:38.126Z,6.05
2018-07-07T02:44:33.164Z,5.74
2018-07-07T02:50:28.080Z,5.96
2018-07-07T02:56:23.094Z,5.49
2018-07-07T03:02:18.162Z,5.72
2018-07-07T03:08:13.139Z,4.93
2018-07-07T03:14:08.145Z,5.38
2018-07-07T03:20:03.537Z,5.42
2018-07-07T03:25:58.169Z,5.89
2018-07-07T03:31:53.124Z,5.1
2018-07-07T03:37:48.120Z,5.68
2018-07-07T03:43:43.136Z,5.9
2018-07-07T03:49:38.182Z,5.83
2018-07-07T03:55:33.126Z,5.17
2018-07-07T04:01:28.136Z,5.51
2018-07-07T04:07:23.184Z,5.02
2018-07-07T04:13:18.153Z,5.41
2018-07-07T04:19:13.135Z,5.54
2018-07-07T04:25:08.190Z,5.28
2018-07-07T04:31:03.156Z,5.59
2018-07-07T04:36:58.143Z,6.42
2018-07-07T04:42:53.144Z,6.12
2018-07-07T04:48:48.154Z,6.36
2018-07-07T04:54:43.155Z,5.96
2018-07-07T05:00:38.240Z,6.42
2018-07-07T05:06:33.186Z,6.51
2018-07-07T05:12:28.165Z,6.15
2018-07-07T05:18:23.212Z,6.45
2018-07-07T05:24:18.192Z,5.98
2018-07-07T05:30:13.230Z,6.09
2018-07-07T05:36:08.181Z,6.22
2018-07-07T05:42:03.187Z,6.57
2018-07-07T05:47:58.182Z,6.87
2018-07-07T05:53:53.207Z,6.07
2018-07-07T05:59:48.213Z,6.41
2018-07-07T06:05:43.217Z,6.58
2018-07-07T06:11:38.219Z,7.03
2018-07-07T06:17:33.276Z,6.87
2018-07-07T06:23:28.253Z,7.06
2018-07-07T06:29:23.229Z,6.96
2018-07-07T06:35:18.228Z,7
2018-07-07T06:41:13.244Z,7.54
2018-07-07T06:47:08.259Z,7.76
2018-07-07T06:53:03.238Z,3.18
2018-07-07T06:58:58.273Z,6.23
2018-07-07T07:04:53.237Z,7.67
2018-07-07T07:10:48.259Z,7.64
2018-07-07T07:16:43.249Z,6.9
2018-07-07T07:22:38.237Z,7.32
2018-07-07T07:28:33.251Z,6.75
2018-07-07T07:34:28.263Z,6.8
2018-07-07T07:40:23.348Z,6.73
2018-07-07T07:46:18.247Z,9.11
2018-07-07T07:52:13.258Z,7.9
2018-07-07T07:58:08.280Z,8.55
2018-07-07T08:04:03.277Z,7.57
2018-07-07T08:09:58.262Z,6.97
2018-07-07T08:15:53.291Z,6.1
2018-07-07T08:21:48.280Z,6.77
2018-07-07T08:27:43.281Z,5.75
2018-07-07T08:33:38.295Z,6.29
2018-07-07T08:39:33.293Z,6.02
2018-07-07T08:45:28.325Z,5.7
2018-07-07T08:51:23.308Z,5.35
2018-07-07T08:57:18.327Z,7.43
2018-07-07T09:03:13.354Z,6.14
2018-07-07T09:09:08.335Z,5.82
2018-07-07T09:15:03.808Z,5.68
2018-07-07T09:20:58.354Z,5.46
2018-07-07T09:26:53.339Z,5.54
2018-07-07T09:32:48.319Z,7.23
2018-07-07T09:38:43.375Z,6.34
2018-07-07T09:44:38.386Z,5.84
2018-07-07T09:50:33.368Z,6.08
2018-07-07T09:56:28.333Z,5.84
2018-07-07T10:02:23.344Z,6.81
2018-07-07T10:08:18.349Z,5.8
2018-07-07T10:14:13.380Z,6.17
2018-07-07T10:20:08.365Z,6.17
2018-07-07T10:26:03.350Z,6.58
2018-07-07T10:31:58.346Z,6.41
2018-07-07T10:37:53.365Z,6.33
2018-07-07T10:43:48.360Z,5.63
2018-07-07T10:49:43.398Z,6.59
2018-07-07T10:55:38.503Z,6.01
2018-07-07T11:01:33.411Z,5.4
2018-07-07T11:07:28.379Z,6.45
2018-07-07T11:13:23.383Z,8.74
2018-07-07T11:19:18.420Z,5.7
2018-07-07T11:25:13.400Z,3.89
2018-07-07T11:31:08.403Z,3.06
2018-07-07T11:37:03.413Z,4.11
2018-07-07T11:42:58.426Z,5.15
2018-07-07T11:48:53.462Z,4.82
2018-07-07T11:54:48.495Z,3.37
2018-07-07T12:00:43.429Z,4.11
2018-07-07T12:06:38.424Z,4.47
2018-07-07T12:12:33.423Z,4.57
2018-07-07T12:18:28.414Z,4.61
2018-07-07T12:24:23.474Z,5.02
2018-07-07T12:30:18.463Z,3.39
2018-07-07T12:36:13.420Z,2.7
2018-07-07T12:42:08.438Z,4.16
2018-07-07T12:48:03.493Z,5.37
2018-07-07T12:53:58.445Z,4.35
2018-07-07T12:59:53.444Z,4.92
2018-07-07T13:05:48.463Z,3.47
2018-07-07T13:11:43.455Z,6.44
2018-07-07T13:17:38.461Z,5.37
2018-07-07T13:23:33.532Z,3.36
2018-07-07T13:29:28.467Z,5.57
2018-07-07T13:35:23.454Z,3.35
2018-07-07T13:41:18.489Z,3.47
2018-07-07T13:47:13.454Z,3.47
2018-07-07T13:53:08.510Z,3.56
2018-07-07T13:59:03.507Z,4.37
2018-07-07T14:04:58.518Z,4.01
2018-07-07T14:10:53.501Z,4.39
2018-07-07T14:16:48.598Z,3.96
2018-07-07T14:22:43.532Z,4.33
2018-07-07T14:28:38.518Z,4.56
2018-07-07T14:34:33.496Z,5.63
2018-07-07T14:40:28.514Z,5.86
2018-07-07T14:46:23.569Z,5.9
2018-07-07T14:52:18.506Z,7.41
2018-07-07T14:58:13.620Z,6.5
2018-07-07T15:04:08.530Z,6.19
2018-07-07T15:10:03.640Z,6.97
2018-07-07T15:15:58.523Z,6.56
2018-07-07T15:21:53.598Z,7.2
2018-07-07T15:27:48.520Z,5.31
2018-07-07T15:33:43.528Z,4.1
2018-07-07T15:39:38.517Z,4.32
2018-07-07T15:45:33.582Z,3.89
2018-07-07T15:51:28.609Z,4.47
2018-07-07T15:57:23.542Z,5.17
2018-07-07T16:03:18.563Z,4.37
2018-07-07T16:09:13.602Z,4.2
2018-07-07T16:15:08.562Z,3.73
2018-07-07T16:21:03.577Z,3.77
2018-07-07T16:26:58.575Z,4.41
2018-07-07T16:32:53.558Z,4.12
2018-07-07T16:38:48.591Z,3.33
2018-07-07T16:44:43.580Z,3.77
2018-07-07T16:50:38.588Z,4.17
2018-07-07T16:56:33.590Z,4.2
2018-07-07T17:02:28.603Z,3.37
2018-07-07T17:08:23.615Z,3.72
2018-07-07T17:14:18.652Z,3.99
2018-07-07T17:20:13.610Z,4.52
2018-07-07T17:26:08.617Z,3.93
2018-07-07T17:32:03.618Z,4.07
2018-07-07T17:37:58.608Z,3.65
2018-07-07T17:43:53.597Z,4.36
2018-07-07T17:49:48.613Z,4.88
2018-07-07T17:55:43.613Z,7.97
2018-07-07T18:01:38.700Z,6.42
2018-07-07T18:07:33.651Z,4.27
2018-07-07T18:13:28.637Z,6.3
2018-07-07T18:19:23.639Z,7.42
2018-07-07T18:25:18.688Z,6.55
2018-07-07T18:31:13.702Z,7.09
2018-07-07T18:37:08.696Z,7.69
2018-07-07T18:43:03.665Z,5.3
2018-07-07T18:48:58.777Z,4.94
2018-07-07T18:54:53.750Z,5.11
2018-07-07T19:00:48.700Z,5.91
2018-07-07T19:06:43.660Z,6.47
2018-07-07T19:12:38.664Z,5.31
2018-07-07T19:18:33.698Z,5.35
2018-07-07T19:24:28.671Z,5.34
2018-07-07T19:30:23.688Z,5.65
2018-07-07T19:36:18.672Z,4.19
2018-07-07T19:42:13.677Z,4.74
2018-07-07T19:48:08.683Z,5.22
2018-07-07T19:54:03.693Z,5.59
2018-07-07T19:59:58.680Z,4.88
2018-07-07T20:05:53.686Z,5.89
2018-07-07T20:11:48.691Z,5.08
2018-07-07T20:17:43.691Z,4.97
2018-07-07T20:23:38.730Z,4.43
2018-07-07T20:29:33.700Z,5.22
2018-07-07T20:35:28.773Z,4.77
2018-07-07T20:41:23.746Z,5.35
2018-07-07T20:47:18.772Z,5.59
2018-07-07T20:53:13.715Z,4.87
2018-07-07T20:59:08.739Z,5.49
2018-07-07T21:05:03.778Z,5.11
2018-07-07T21:10:58.760Z,5.9
2018-07-07T21:16:53.725Z,5.49
2018-07-07T21:22:48.739Z,5.73
2018-07-07T21:28:43.758Z,5.98
2018-07-07T21:34:38.778Z,6.03
2018-07-07T21:40:33.738Z,4.73
2018-07-07T21:46:28.761Z,5.46
2018-07-07T21:52:23.763Z,5.67
2018-07-07T21:58:18.749Z,5.59
2018-07-07T22:04:13.764Z,6.55
2018-07-07T22:10:08.787Z,6.61
2018-07-07T22:16:04.515Z,5.87
2018-07-07T22:21:58.817Z,5.75
2018-07-07T22:27:53.794Z,5.69
2018-07-07T22:33:48.787Z,5.08
2018-07-07T22:39:43.807Z,5.4
2018-07-07T22:45:38.797Z,5.93
2018-07-07T22:51:33.806Z,5.05
2018-07-07T22:57:28.800Z,4.84
2018-07-07T23:03:23.807Z,4.26
2018-07-07T23:09:18.833Z,4.37
2018-07-07T23:15:13.819Z,5.08
2018-07-07T23:21:08.828Z,5.43
2018-07-07T23:27:03.849Z,4.65
2018-07-07T23:32:58.838Z,4.47
2018-07-07T23:38:53.849Z,4.49
2018-07-07T23:44:48.827Z,4.19
2018-07-07T23:50:43.861Z,4.21
2018-07-07T23:56:38.882Z,3.81
